createdAt,value
2019-06-26T00:01:16.049Z,15.43
2019-06-26T00:03:44.768Z,16.50
2019-06-26T00:06:13.449Z,15.47
2019-06-26T00:08:41.867Z,14.47
2019-06-26T00:11:10.276Z,17.20
2019-06-26T00:13:38.683Z,15.80
2019-06-26T00:16:07.384Z,16.73
2019-06-26T00:18:36.073Z,17.50
2019-06-26T00:21:04.555Z,15.73
2019-06-26T00:23:32.970Z,15.83
2019-06-26T00:26:01.385Z,19.20
2019-06-26T00:28:29.865Z,16.00
2019-06-26T00:30:58.601Z,17.77
2019-06-26T00:33:27.301Z,16.20
2019-06-26T00:35:55.719Z,18.00
2019-06-26T00:38:24.135Z,16.37
2019-06-26T00:40:52.541Z,17.03
2019-06-26T00:43:21.225Z,16.83
2019-06-26T00:45:49.644Z,15.93
2019-06-26T00:48:18.408Z,15.13
2019-06-26T00:50:47.093Z,15.90
2019-06-26T00:53:15.777Z,16.00
2019-06-26T00:55:44.181Z,17.00
2019-06-26T00:58:12.670Z,16.60
2019-06-26T01:00:47.378Z,15.30
2019-06-26T01:03:15.795Z,15.17
2019-06-26T01:05:44.563Z,16.40
2019-06-26T01:08:12.994Z,15.73
2019-06-26T01:10:41.457Z,14.90
2019-06-26T01:13:09.945Z,17.10
2019-06-26T01:15:38.354Z,16.37
2019-06-26T01:18:06.775Z,16.50
2019-06-26T01:20:35.482Z,15.67
2019-06-26T01:23:03.957Z,16.20
2019-06-26T01:25:32.643Z,16.07
2019-06-26T01:28:01.060Z,16.00
2019-06-26T01:30:29.476Z,16.40
2019-06-26T01:32:57.897Z,16.13
2019-06-26T01:35:26.299Z,16.77
2019-06-26T01:37:55.062Z,16.53
2019-06-26T01:40:23.481Z,16.60
2019-06-26T01:42:51.899Z,16.80
2019-06-26T01:45:20.615Z,20.20
2019-06-26T01:47:49.043Z,20.40
2019-06-26T01:50:17.893Z,17.57
2019-06-26T01:52:46.322Z,18.00
2019-06-26T01:55:15.281Z,19.67
2019-06-26T01:57:43.972Z,19.10
2019-06-26T02:00:13.121Z,16.93
2019-06-26T02:02:42.069Z,18.20
2019-06-26T02:05:10.464Z,18.27
2019-06-26T02:07:38.961Z,21.50
2019-06-26T02:10:08.454Z,18.60
2019-06-26T02:12:37.143Z,18.00
2019-06-26T02:15:07.555Z,19.10
2019-06-26T02:17:36.237Z,18.27
2019-06-26T02:20:07.024Z,17.80
2019-06-26T02:22:35.441Z,19.00
2019-06-26T02:25:04.588Z,20.20
2019-06-26T02:27:33.346Z,19.97
2019-06-26T02:30:02.048Z,20.00
2019-06-26T02:32:30.467Z,20.33
2019-06-26T02:34:58.874Z,20.23
2019-06-26T02:37:27.292Z,19.60
2019-06-26T02:39:55.703Z,19.73
2019-06-26T02:42:24.106Z,18.80
2019-06-26T02:44:54.583Z,22.00
2019-06-26T02:47:23.482Z,21.77
2019-06-26T02:49:52.182Z,20.10
2019-06-26T02:52:20.600Z,22.50
2019-06-26T02:54:49.018Z,19.90
2019-06-26T02:57:17.426Z,20.93
2019-06-26T02:59:46.214Z,20.63
2019-06-26T03:02:14.625Z,20.67
2019-06-26T03:04:43.037Z,28.63
2019-06-26T03:07:11.771Z,20.90
2019-06-26T03:09:40.201Z,22.57
2019-06-26T03:12:08.950Z,24.33
2019-06-26T03:14:37.365Z,23.73
2019-06-26T03:17:05.846Z,23.10
2019-06-26T03:19:37.032Z,24.17
2019-06-26T03:22:05.867Z,29.10
2019-06-26T03:24:34.277Z,27.73
2019-06-26T03:27:02.682Z,24.33
2019-06-26T03:29:31.454Z,24.00
2019-06-26T03:31:59.890Z,26.93
2019-06-26T03:34:28.348Z,26.80
2019-06-26T03:36:57.079Z,27.63
2019-06-26T03:39:25.507Z,28.43
2019-06-26T03:41:53.910Z,33.80
2019-06-26T03:44:22.368Z,43.23
2019-06-26T03:46:50.834Z,43.57
2019-06-26T03:49:19.619Z,45.03
2019-06-26T03:51:48.386Z,51.13
2019-06-26T03:54:16.806Z,53.33
2019-06-26T03:56:45.219Z,55.20
2019-06-26T03:59:13.951Z,54.30
2019-06-26T04:01:42.353Z,55.43
2019-06-26T04:04:11.117Z,56.87
2019-06-26T04:06:39.525Z,56.20
2019-06-26T04:09:08.216Z,55.23
2019-06-26T04:11:36.613Z,63.53
2019-06-26T04:14:05.297Z,69.10
2019-06-26T04:16:33.719Z,69.20
2019-06-26T04:19:02.439Z,73.33
2019-06-26T04:21:30.853Z,79.23
2019-06-26T04:23:59.612Z,80.77
2019-06-26T04:26:28.009Z,82.47
2019-06-26T04:28:56.433Z,84.10
2019-06-26T04:31:24.833Z,81.17
2019-06-26T04:33:53.253Z,81.63
2019-06-26T04:36:21.932Z,90.57
2019-06-26T04:38:50.622Z,79.67
2019-06-26T04:41:19.327Z,82.87
2019-06-26T04:43:47.737Z,84.80
2019-06-26T04:46:16.132Z,85.13
2019-06-26T04:48:44.559Z,86.67
2019-06-26T04:51:12.953Z,81.07
2019-06-26T04:53:41.637Z,91.50
2019-06-26T04:56:10.037Z,85.50
2019-06-26T04:58:38.452Z,90.70
2019-06-26T05:01:06.857Z,86.87
2019-06-26T05:03:35.266Z,94.53
2019-06-26T05:06:04.152Z,86.73
2019-06-26T05:08:32.853Z,93.40
2019-06-26T05:11:01.541Z,94.30
2019-06-26T05:13:29.957Z,90.17
2019-06-26T05:16:13.718Z,91.13
2019-06-26T05:18:28.499Z,94.87
2019-06-26T05:20:56.918Z,90.33
2019-06-26T05:23:25.321Z,88.73
2019-06-26T05:25:53.734Z,89.23
2019-06-26T05:28:22.472Z,89.73
2019-06-26T05:30:50.884Z,84.10
2019-06-26T05:33:19.295Z,86.77
2019-06-26T05:35:47.704Z,89.00
2019-06-26T05:38:16.414Z,89.53
2019-06-26T05:40:44.825Z,92.87
2019-06-26T05:43:13.494Z,104.27
2019-06-26T05:45:41.913Z,96.50
2019-06-26T05:48:10.320Z,91.17
2019-06-26T05:50:38.741Z,89.50
2019-06-26T05:53:07.150Z,93.97
2019-06-26T05:55:35.568Z,95.93
2019-06-26T05:58:06.083Z,90.93
2019-06-26T06:00:34.503Z,97.90
2019-06-26T06:03:03.205Z,99.27
2019-06-26T06:05:31.997Z,98.73
2019-06-26T06:08:00.400Z,94.03
2019-06-26T06:10:28.813Z,96.30
2019-06-26T06:12:57.554Z,95.87
2019-06-26T06:15:25.969Z,92.87
2019-06-26T06:17:54.628Z,88.00
2019-06-26T06:20:29.141Z,98.37
2019-06-26T06:22:57.550Z,91.40
2019-06-26T06:25:26.293Z,88.67
2019-06-26T06:27:54.768Z,90.50
2019-06-26T06:30:23.261Z,77.17
2019-06-26T06:32:51.977Z,77.47
2019-06-26T06:35:20.397Z,86.07
2019-06-26T06:37:49.057Z,86.97
2019-06-26T06:40:17.945Z,84.43
2019-06-26T06:42:46.348Z,95.83
2019-06-26T06:45:15.225Z,88.20
2019-06-26T06:47:43.921Z,91.90
2019-06-26T06:50:12.466Z,89.57
2019-06-26T06:52:40.916Z,79.63
2019-06-26T06:55:09.602Z,90.90
2019-06-26T06:57:38.265Z,85.73
2019-06-26T07:00:07.938Z,79.87
2019-06-26T07:02:36.324Z,82.23
2019-06-26T07:05:09.950Z,73.00
2019-06-26T07:07:38.359Z,80.27
2019-06-26T07:10:07.745Z,80.17
2019-06-26T07:12:36.241Z,70.43
2019-06-26T07:15:08.930Z,83.80
2019-06-26T07:17:37.426Z,81.00
2019-06-26T07:20:06.538Z,79.47
2019-06-26T07:22:34.936Z,81.47
2019-06-26T07:25:03.426Z,81.10
2019-06-26T07:27:31.816Z,77.30
2019-06-26T07:30:00.234Z,80.47
2019-06-26T07:32:28.922Z,72.60
2019-06-26T07:34:57.339Z,77.67
2019-06-26T07:37:25.757Z,78.03
2019-06-26T07:39:58.811Z,70.07
2019-06-26T07:42:24.577Z,71.67
2019-06-26T07:44:53.290Z,77.93
2019-06-26T07:47:23.431Z,75.03
2019-06-26T07:49:51.829Z,83.20
2019-06-26T07:52:20.234Z,75.47
2019-06-26T07:54:48.667Z,75.00
2019-06-26T07:57:17.062Z,76.20
2019-06-26T07:59:45.524Z,71.50
2019-06-26T08:02:13.958Z,61.33
2019-06-26T08:04:42.382Z,74.67
2019-06-26T08:07:10.792Z,73.03
2019-06-26T08:09:39.222Z,73.03
2019-06-26T08:12:07.685Z,85.93
2019-06-26T08:14:36.089Z,78.70
2019-06-26T08:17:04.584Z,84.13
2019-06-26T08:19:33.049Z,68.27
2019-06-26T08:22:01.460Z,73.50
2019-06-26T08:24:30.283Z,69.83
2019-06-26T08:26:58.702Z,72.63
2019-06-26T08:29:27.353Z,87.27
2019-06-26T08:31:55.830Z,72.33
2019-06-26T08:34:24.228Z,76.20
2019-06-26T08:36:52.907Z,73.53
2019-06-26T08:39:21.600Z,76.13
2019-06-26T08:41:50.020Z,75.73
2019-06-26T08:44:18.787Z,72.20
2019-06-26T08:46:47.485Z,72.67
2019-06-26T08:49:25.525Z,59.90
2019-06-26T08:51:46.378Z,72.03
2019-06-26T08:54:14.768Z,70.70
2019-06-26T08:56:43.263Z,69.93
2019-06-26T08:59:11.668Z,73.30
2019-06-26T09:01:40.113Z,75.60
2019-06-26T09:04:08.514Z,80.07
2019-06-26T09:06:36.939Z,66.90
2019-06-26T09:09:07.271Z,67.33
2019-06-26T09:11:36.306Z,62.00
2019-06-26T09:14:04.845Z,75.43
2019-06-26T09:16:33.579Z,65.47
2019-06-26T09:19:02.308Z,85.53
2019-06-26T09:21:31.301Z,61.93
2019-06-26T09:23:59.969Z,64.00
2019-06-26T09:26:28.375Z,66.70
2019-06-26T09:28:56.778Z,51.60
2019-06-26T09:31:25.196Z,63.50
2019-06-26T09:33:53.601Z,66.00
2019-06-26T09:36:22.012Z,56.20
2019-06-26T09:38:50.413Z,74.33
2019-06-26T09:41:18.831Z,67.27
2019-06-26T09:43:47.221Z,47.00
2019-06-26T09:46:15.644Z,64.70
2019-06-26T09:48:52.552Z,61.33
2019-06-26T09:51:14.254Z,52.20
2019-06-26T09:53:47.561Z,63.97
2019-06-26T09:56:13.137Z,53.80
2019-06-26T09:58:41.551Z,60.37
2019-06-26T10:01:09.969Z,62.83
2019-06-26T10:03:38.454Z,54.90
2019-06-26T10:06:06.866Z,55.90
2019-06-26T10:08:35.671Z,47.00
2019-06-26T10:11:04.541Z,55.90
2019-06-26T10:13:33.400Z,50.33
2019-06-26T10:16:01.938Z,57.20
2019-06-26T10:18:30.353Z,56.03
2019-06-26T10:20:58.761Z,59.83
2019-06-26T10:23:27.229Z,65.10
2019-06-26T10:25:55.706Z,64.87
2019-06-26T10:28:24.634Z,58.57
2019-06-26T10:30:53.150Z,63.93
2019-06-26T10:33:21.837Z,67.40
2019-06-26T10:35:50.514Z,52.40
2019-06-26T10:38:19.001Z,55.73
2019-06-26T10:40:47.425Z,58.80
2019-06-26T10:43:15.831Z,58.67
2019-06-26T10:45:44.250Z,58.73
2019-06-26T10:48:12.648Z,66.97
2019-06-26T10:50:49.433Z,61.97
2019-06-26T10:53:11.455Z,61.40
2019-06-26T10:55:39.903Z,58.27
2019-06-26T10:58:08.623Z,53.20
2019-06-26T11:00:37.623Z,64.07
2019-06-26T11:03:06.034Z,61.80
2019-06-26T11:05:34.447Z,54.27
2019-06-26T11:08:03.174Z,52.50
2019-06-26T11:10:31.865Z,44.93
2019-06-26T11:13:00.290Z,42.07
2019-06-26T11:15:28.688Z,57.03
2019-06-26T11:17:57.182Z,51.57
2019-06-26T11:20:26.226Z,59.53
2019-06-26T11:22:54.905Z,59.83
2019-06-26T11:25:23.305Z,51.73
2019-06-26T11:27:51.978Z,55.97
2019-06-26T11:30:21.720Z,57.83
2019-06-26T11:32:50.270Z,62.60
2019-06-26T11:35:19.171Z,53.27
2019-06-26T11:37:47.753Z,34.27
2019-06-26T11:40:16.782Z,41.33
2019-06-26T11:42:45.175Z,56.30
2019-06-26T11:45:13.913Z,53.60
2019-06-26T11:47:45.579Z,49.87
2019-06-26T11:50:13.601Z,55.03
2019-06-26T11:52:42.020Z,40.03
2019-06-26T11:55:11.190Z,51.80
2019-06-26T11:57:39.621Z,50.27
2019-06-26T12:00:10.728Z,48.70
2019-06-26T12:02:39.465Z,40.87
2019-06-26T12:05:08.410Z,51.17
2019-06-26T12:07:37.165Z,48.33
2019-06-26T12:10:07.940Z,48.73
2019-06-26T12:12:36.506Z,45.33
2019-06-26T12:15:06.775Z,41.40
2019-06-26T12:17:35.316Z,31.63
2019-06-26T12:20:17.744Z,35.33
2019-06-26T12:22:35.669Z,33.50
2019-06-26T12:25:05.013Z,31.40
2019-06-26T12:27:33.505Z,30.63
2019-06-26T12:30:01.926Z,27.13
2019-06-26T12:32:30.447Z,28.73
2019-06-26T12:34:58.905Z,25.90
2019-06-26T12:37:37.083Z,29.83
2019-06-26T12:39:57.465Z,25.13
2019-06-26T12:42:25.937Z,26.07
2019-06-26T12:44:54.343Z,28.10
2019-06-26T12:47:22.759Z,24.75
2019-06-26T12:49:51.417Z,25.87
2019-06-26T12:52:19.834Z,28.43
2019-06-26T12:54:48.236Z,23.70
2019-06-26T12:57:16.648Z,25.37
2019-06-26T12:59:56.464Z,25.27
2019-06-26T13:02:15.482Z,23.17
2019-06-26T13:04:45.012Z,19.53
2019-06-26T13:07:14.078Z,26.00
2019-06-26T13:09:42.577Z,18.20
2019-06-26T13:12:10.993Z,18.43
2019-06-26T13:14:39.393Z,17.53
2019-06-26T13:17:07.810Z,19.57
2019-06-26T13:19:36.234Z,28.10
2019-06-26T13:22:04.624Z,21.13
2019-06-26T13:24:33.129Z,19.53
2019-06-26T13:27:01.602Z,20.60
2019-06-26T13:29:30.007Z,18.10
2019-06-26T13:31:58.496Z,15.87
2019-06-26T13:34:26.921Z,19.53
2019-06-26T13:36:55.409Z,16.17
2019-06-26T13:39:23.821Z,18.20
2019-06-26T13:41:52.236Z,17.10
2019-06-26T13:44:20.961Z,16.87
2019-06-26T13:46:49.373Z,14.43
2019-06-26T13:49:17.797Z,19.40
2019-06-26T13:51:46.226Z,14.70
2019-06-26T13:54:14.998Z,13.83
2019-06-26T13:56:43.753Z,14.13
2019-06-26T13:59:12.181Z,13.40
2019-06-26T14:01:40.585Z,14.53
2019-06-26T14:04:08.993Z,12.07
2019-06-26T14:06:37.397Z,13.20
2019-06-26T14:09:07.153Z,11.93
2019-06-26T14:11:35.685Z,11.73
2019-06-26T14:14:04.169Z,10.80
2019-06-26T14:16:32.905Z,11.30
2019-06-26T14:19:01.390Z,11.30
2019-06-26T14:21:30.396Z,10.10
2019-06-26T14:23:59.152Z,9.93
2019-06-26T14:26:27.621Z,11.40
2019-06-26T14:28:56.040Z,10.83
2019-06-26T14:31:24.721Z,12.10
2019-06-26T14:33:53.142Z,14.60
2019-06-26T14:36:23.355Z,11.27
2019-06-26T14:38:51.689Z,12.67
2019-06-26T14:41:20.401Z,12.13
2019-06-26T14:43:49.093Z,12.57
2019-06-26T14:46:17.499Z,12.27
2019-06-26T14:48:45.910Z,15.83
2019-06-26T14:51:15.085Z,13.87
2019-06-26T14:53:43.573Z,12.10
2019-06-26T14:56:11.985Z,10.70
2019-06-26T14:58:40.397Z,11.40
2019-06-26T15:01:08.808Z,14.83
2019-06-26T15:03:37.225Z,14.57
2019-06-26T15:06:16.069Z,14.43
2019-06-26T15:08:35.774Z,11.50
2019-06-26T15:11:04.583Z,11.57
2019-06-26T15:13:33.033Z,12.20
2019-06-26T15:16:01.473Z,12.93
2019-06-26T15:18:29.895Z,14.00
2019-06-26T15:20:58.301Z,13.17
2019-06-26T15:23:27.001Z,13.70
2019-06-26T15:25:55.689Z,13.50
2019-06-26T15:28:24.378Z,13.80
2019-06-26T15:30:52.790Z,14.30
2019-06-26T15:33:21.192Z,12.83
2019-06-26T15:35:49.613Z,17.33
2019-06-26T15:38:18.328Z,15.73
2019-06-26T15:40:46.724Z,16.73
2019-06-26T15:43:15.148Z,12.30
2019-06-26T15:45:43.556Z,14.33
2019-06-26T15:48:12.262Z,13.38
2019-06-26T15:50:40.682Z,13.63
2019-06-26T15:53:09.101Z,14.63
2019-06-26T15:55:37.587Z,17.97
2019-06-26T15:58:06.008Z,12.97
2019-06-26T16:00:34.773Z,14.83
2019-06-26T16:03:03.899Z,13.67
2019-06-26T16:05:32.289Z,14.77
2019-06-26T16:08:00.711Z,17.07
2019-06-26T16:10:29.112Z,15.03
2019-06-26T16:12:57.530Z,18.20
2019-06-26T16:15:25.944Z,18.37
2019-06-26T16:17:56.330Z,15.80
2019-06-26T16:20:25.022Z,13.77
2019-06-26T16:22:53.478Z,15.97
2019-06-26T16:25:21.953Z,20.13
2019-06-26T16:28:04.317Z,13.90
2019-06-26T16:30:21.249Z,12.90
2019-06-26T16:32:50.002Z,17.13
2019-06-26T16:35:18.796Z,14.13
2019-06-26T16:37:47.211Z,13.80
2019-06-26T16:40:16.198Z,12.20
2019-06-26T16:42:44.716Z,14.50
2019-06-26T16:45:13.865Z,14.33
2019-06-26T16:47:42.286Z,14.30
2019-06-26T16:50:10.763Z,16.30
2019-06-26T16:52:49.116Z,15.33
2019-06-26T16:55:09.473Z,12.40
2019-06-26T16:57:38.252Z,13.13
2019-06-26T17:00:10.530Z,11.83
2019-06-26T17:02:39.112Z,11.43
2019-06-26T17:05:08.154Z,11.87
2019-06-26T17:07:36.883Z,14.37
2019-06-26T17:10:06.949Z,12.37
2019-06-26T17:12:35.347Z,11.57
2019-06-26T17:15:05.718Z,12.93
2019-06-26T17:17:34.116Z,10.53
2019-06-26T17:20:02.528Z,12.93
2019-06-26T17:22:30.952Z,10.70
2019-06-26T17:24:59.379Z,10.77
2019-06-26T17:27:28.130Z,11.70
2019-06-26T17:29:56.554Z,11.90
2019-06-26T17:32:24.967Z,12.30
2019-06-26T17:34:53.365Z,12.20
2019-06-26T17:37:21.772Z,11.67
2019-06-26T17:39:50.454Z,9.73
2019-06-26T17:42:18.864Z,11.47
2019-06-26T17:44:47.286Z,13.00
2019-06-26T17:47:15.696Z,14.20
2019-06-26T17:49:44.394Z,12.90
2019-06-26T17:52:12.793Z,13.27
2019-06-26T17:54:41.217Z,14.43
2019-06-26T17:57:09.953Z,11.13
2019-06-26T17:59:38.369Z,11.37
2019-06-26T18:02:06.798Z,9.73
2019-06-26T18:04:35.227Z,9.50
2019-06-26T18:07:03.699Z,9.00
2019-06-26T18:09:32.138Z,7.43
2019-06-26T18:12:00.902Z,8.00
2019-06-26T18:14:29.653Z,7.00
2019-06-26T18:16:58.067Z,7.20
2019-06-26T18:19:26.554Z,7.00
2019-06-26T18:21:54.945Z,7.67
2019-06-26T18:24:23.693Z,7.80
2019-06-26T18:26:52.385Z,8.20
2019-06-26T18:29:21.084Z,6.53
2019-06-26T18:31:49.484Z,15.63
2019-06-26T18:34:17.893Z,8.33
2019-06-26T18:36:46.637Z,6.13
2019-06-26T18:39:15.088Z,6.10
2019-06-26T18:41:43.513Z,5.10
2019-06-26T18:44:11.938Z,6.20
2019-06-26T18:46:40.698Z,6.00
2019-06-26T18:49:09.170Z,4.90
2019-06-26T18:51:37.625Z,6.03
2019-06-26T18:54:06.570Z,8.10
2019-06-26T18:56:35.349Z,4.73
2019-06-26T18:59:04.055Z,4.93
2019-06-26T19:01:32.464Z,5.13
2019-06-26T19:04:01.215Z,4.93
2019-06-26T19:06:29.648Z,4.13
2019-06-26T19:08:58.119Z,4.07
2019-06-26T19:11:26.515Z,4.50
2019-06-26T19:13:55.265Z,3.70
2019-06-26T19:16:23.690Z,8.43
2019-06-26T19:18:52.101Z,5.27
2019-06-26T19:21:20.598Z,2.73
2019-06-26T19:23:49.278Z,3.30
2019-06-26T19:26:17.720Z,3.87
2019-06-26T19:28:46.195Z,3.10
2019-06-26T19:31:14.609Z,2.30
2019-06-26T19:33:45.634Z,2.43
2019-06-26T19:36:13.482Z,3.17
2019-06-26T19:38:41.873Z,4.00
2019-06-26T19:41:10.341Z,3.50
2019-06-26T19:43:39.112Z,4.53
2019-06-26T19:46:07.547Z,4.23
2019-06-26T19:48:36.021Z,2.70
2019-06-26T19:51:04.498Z,3.93
2019-06-26T19:53:33.249Z,4.30
2019-06-26T19:56:01.661Z,4.37
2019-06-26T19:58:30.058Z,2.60
2019-06-26T20:00:58.533Z,4.27
2019-06-26T20:03:27.345Z,8.87
2019-06-26T20:05:55.985Z,5.43
2019-06-26T20:08:24.378Z,3.00
2019-06-26T20:10:52.792Z,6.10
2019-06-26T20:13:21.196Z,4.20
2019-06-26T20:15:49.913Z,6.20
2019-06-26T20:18:18.609Z,3.87
2019-06-26T20:20:47.142Z,5.20
2019-06-26T20:23:15.630Z,7.43
2019-06-26T20:25:44.035Z,5.97
2019-06-26T20:28:12.483Z,4.87
2019-06-26T20:30:41.250Z,8.87
2019-06-26T20:33:09.674Z,4.20
2019-06-26T20:35:38.958Z,10.43
2019-06-26T20:38:07.713Z,5.47
2019-06-26T20:40:36.125Z,6.67
2019-06-26T20:43:04.524Z,13.07
2019-06-26T20:45:32.928Z,5.70
2019-06-26T20:48:01.339Z,8.93
2019-06-26T20:50:29.753Z,6.17
2019-06-26T20:52:58.163Z,7.13
2019-06-26T20:55:26.574Z,6.40
2019-06-26T20:57:55.295Z,5.67
2019-06-26T21:00:23.705Z,4.17
2019-06-26T21:02:54.247Z,6.53
2019-06-26T21:05:22.248Z,7.43
2019-06-26T21:07:50.651Z,7.77
2019-06-26T21:10:19.360Z,5.63
2019-06-26T21:12:47.779Z,4.57
2019-06-26T21:15:16.185Z,6.90
2019-06-26T21:17:44.906Z,3.30
2019-06-26T21:20:13.590Z,3.80
2019-06-26T21:22:41.993Z,5.93
2019-06-26T21:25:18.442Z,7.17
2019-06-26T21:27:40.605Z,11.83
2019-06-26T21:30:10.038Z,5.40
2019-06-26T21:32:38.498Z,6.50
2019-06-26T21:35:07.017Z,7.10
2019-06-26T21:37:35.749Z,4.87
2019-06-26T21:40:04.954Z,6.43
2019-06-26T21:42:33.450Z,12.63
2019-06-26T21:45:02.146Z,5.50
2019-06-26T21:47:30.818Z,9.57
2019-06-26T21:49:59.238Z,10.33
2019-06-26T21:52:27.911Z,7.73
2019-06-26T21:54:56.681Z,7.43
2019-06-26T21:57:25.105Z,7.27
2019-06-26T21:59:53.592Z,5.80
2019-06-26T22:02:22.338Z,7.10
2019-06-26T22:04:51.065Z,5.33
2019-06-26T22:07:19.601Z,6.83
2019-06-26T22:09:48.018Z,8.63
2019-06-26T22:12:16.502Z,8.03
2019-06-26T22:14:44.927Z,14.17
2019-06-26T22:17:13.377Z,9.17
2019-06-26T22:19:41.793Z,9.40
2019-06-26T22:22:10.193Z,7.27
2019-06-26T22:24:38.919Z,8.60
2019-06-26T22:27:07.333Z,11.57
2019-06-26T22:29:35.714Z,7.33
2019-06-26T22:32:04.486Z,8.80
2019-06-26T22:34:32.891Z,12.27
2019-06-26T22:37:01.317Z,11.13
2019-06-26T22:39:29.727Z,9.47
2019-06-26T22:41:58.163Z,10.10
2019-06-26T22:44:26.889Z,9.70
2019-06-26T22:46:55.578Z,13.17
2019-06-26T22:49:23.996Z,15.53
2019-06-26T22:51:52.423Z,15.73
2019-06-26T22:54:21.175Z,16.40
2019-06-26T22:56:49.944Z,10.17
2019-06-26T22:59:18.359Z,14.30
2019-06-26T23:01:46.788Z,11.40
2019-06-26T23:04:15.178Z,9.80
2019-06-26T23:06:43.880Z,9.70
2019-06-26T23:09:12.384Z,7.90
2019-06-26T23:11:41.155Z,11.10
2019-06-26T23:14:09.555Z,9.20
2019-06-26T23:16:37.976Z,8.40
2019-06-26T23:19:06.382Z,10.70
2019-06-26T23:21:35.090Z,8.60
2019-06-26T23:24:03.632Z,9.27
2019-06-26T23:26:32.041Z,6.83
2019-06-26T23:29:00.475Z,6.50
2019-06-26T23:31:29.240Z,10.37
2019-06-26T23:33:57.658Z,8.03
2019-06-26T23:36:26.402Z,7.77
2019-06-26T23:38:55.105Z,7.17
2019-06-26T23:41:23.797Z,8.80
2019-06-26T23:43:52.484Z,6.63
2019-06-26T23:46:21.172Z,9.30
2019-06-26T23:48:49.595Z,10.70
2019-06-26T23:51:18.344Z,7.70
2019-06-26T23:53:47.034Z,7.83
2019-06-26T23:56:15.433Z,8.67
2019-06-26T23:58:43.852Z,6.10
